sensor_id;sensor_type;location;lat;lon;timestamp;pressure;altitude;pressure_sealevel;temperature;humidity
64211;BME280;50528;48.514;14.394;2022-08-19T00:00:47;93282.70;;;18.82;65.53
64211;BME280;50528;48.514;14.394;2022-08-19T00:01:53;93287.12;;;18.84;65.75
64211;BME280;50528;48.514;14.394;2022-08-19T00:02:57;93298.01;;;18.86;65.86
64211;BME280;50528;48.514;14.394;2022-08-19T00:04:04;93294.82;;;18.86;65.95
64211;BME280;50528;48.514;14.394;2022-08-19T00:05:10;93295.63;;;18.85;65.85
64211;BME280;50528;48.514;14.394;2022-08-19T00:06:14;93289.19;;;18.89;66.34
64211;BME280;50528;48.514;14.394;2022-08-19T00:07:20;93287.00;;;18.91;66.46
64211;BME280;50528;48.514;14.394;2022-08-19T00:08:33;93284.11;;;18.93;66.83
64211;BME280;50528;48.514;14.394;2022-08-19T00:09:36;93288.98;;;18.96;66.60
64211;BME280;50528;48.514;14.394;2022-08-19T00:10:39;93290.73;;;18.98;66.42
64211;BME280;50528;48.514;14.394;2022-08-19T00:11:43;93293.58;;;18.99;66.40
64211;BME280;50528;48.514;14.394;2022-08-19T00:12:47;93293.19;;;19.00;66.43
64211;BME280;50528;48.514;14.394;2022-08-19T00:13:50;93292.61;;;18.97;66.43
64211;BME280;50528;48.514;14.394;2022-08-19T00:14:53;93294.52;;;18.99;66.66
64211;BME280;50528;48.514;14.394;2022-08-19T00:15:57;93293.02;;;18.98;66.74
64211;BME280;50528;48.514;14.394;2022-08-19T00:17:02;93288.61;;;18.94;66.70
64211;BME280;50528;48.514;14.394;2022-08-19T00:18:06;93286.28;;;18.92;66.69
64211;BME280;50528;48.514;14.394;2022-08-19T00:19:09;93286.48;;;18.90;66.79
64211;BME280;50528;48.514;14.394;2022-08-19T00:20:16;93287.49;;;18.90;66.67
64211;BME280;50528;48.514;14.394;2022-08-19T00:21:20;93284.09;;;18.89;66.58
64211;BME280;50528;48.514;14.394;2022-08-19T00:22:25;93283.54;;;18.87;66.65
64211;BME280;50528;48.514;14.394;2022-08-19T00:23:33;93286.23;;;18.88;66.46
64211;BME280;50528;48.514;14.394;2022-08-19T00:24:41;93290.27;;;18.89;66.43
64211;BME280;50528;48.514;14.394;2022-08-19T00:25:52;93285.27;;;18.85;66.44
64211;BME280;50528;48.514;14.394;2022-08-19T00:26:56;93286.67;;;18.82;66.41
64211;BME280;50528;48.514;14.394;2022-08-19T00:28:20;93287.88;;;18.79;66.36
64211;BME280;50528;48.514;14.394;2022-08-19T00:29:24;93288.38;;;18.76;66.52
64211;BME280;50528;48.514;14.394;2022-08-19T00:30:28;93289.96;;;18.77;66.76
64211;BME280;50528;48.514;14.394;2022-08-19T00:31:31;93292.45;;;18.79;66.84
64211;BME280;50528;48.514;14.394;2022-08-19T00:32:35;93296.69;;;18.82;67.13
64211;BME280;50528;48.514;14.394;2022-08-19T00:33:38;93295.38;;;18.85;67.44
64211;BME280;50528;48.514;14.394;2022-08-19T00:34:41;93295.44;;;18.84;67.34
64211;BME280;50528;48.514;14.394;2022-08-19T00:35:44;93301.06;;;18.91;67.63
64211;BME280;50528;48.514;14.394;2022-08-19T00:36:57;93305.23;;;18.92;67.76
64211;BME280;50528;48.514;14.394;2022-08-19T00:38:02;93305.83;;;18.93;67.55
64211;BME280;50528;48.514;14.394;2022-08-19T00:39:08;93309.00;;;18.95;67.41
64211;BME280;50528;48.514;14.394;2022-08-19T00:40:12;93310.06;;;18.94;67.32
64211;BME280;50528;48.514;14.394;2022-08-19T00:41:18;93316.08;;;18.91;67.23
64211;BME280;50528;48.514;14.394;2022-08-19T00:42:25;93321.33;;;18.87;67.06
64211;BME280;50528;48.514;14.394;2022-08-19T00:43:34;93326.10;;;18.79;67.22
64211;BME280;50528;48.514;14.394;2022-08-19T00:44:37;93322.02;;;18.73;67.16
64211;BME280;50528;48.514;14.394;2022-08-19T00:45:41;93324.54;;;18.70;67.31
64211;BME280;50528;48.514;14.394;2022-08-19T00:46:48;93325.70;;;18.66;67.32
64211;BME280;50528;48.514;14.394;2022-08-19T00:48:00;93327.27;;;18.61;67.42
64211;BME280;50528;48.514;14.394;2022-08-19T00:49:34;93330.54;;;18.53;67.44
64211;BME280;50528;48.514;14.394;2022-08-19T00:50:40;93332.70;;;18.48;67.39
64211;BME280;50528;48.514;14.394;2022-08-19T00:52:02;93334.10;;;18.45;67.47
64211;BME280;50528;48.514;14.394;2022-08-19T00:53:10;93338.17;;;18.45;67.56
64211;BME280;50528;48.514;14.394;2022-08-19T00:54:16;93338.59;;;18.42;67.48
64211;BME280;50528;48.514;14.394;2022-08-19T00:55:31;93341.92;;;18.43;67.41
64211;BME280;50528;48.514;14.394;2022-08-19T00:56:35;93346.03;;;18.43;67.32
64211;BME280;50528;48.514;14.394;2022-08-19T00:57:42;93338.54;;;18.43;67.33
64211;BME280;50528;48.514;14.394;2022-08-19T00:58:47;93336.35;;;18.45;67.28
64211;BME280;50528;48.514;14.394;2022-08-19T01:00:00;93336.83;;;18.45;67.19
64211;BME280;50528;48.514;14.394;2022-08-19T01:01:06;93338.25;;;18.43;67.18
64211;BME280;50528;48.514;14.394;2022-08-19T01:02:16;93345.64;;;18.45;67.14
64211;BME280;50528;48.514;14.394;2022-08-19T01:03:20;93349.38;;;18.45;67.07
64211;BME280;50528;48.514;14.394;2022-08-19T01:04:24;93349.57;;;18.46;67.06
64211;BME280;50528;48.514;14.394;2022-08-19T01:05:28;93349.60;;;18.47;67.27
64211;BME280;50528;48.514;14.394;2022-08-19T01:06:33;93347.97;;;18.46;67.29
64211;BME280;50528;48.514;14.394;2022-08-19T01:07:39;93348.07;;;18.46;67.47
64211;BME280;50528;48.514;14.394;2022-08-19T01:08:43;93346.66;;;18.47;67.65
64211;BME280;50528;48.514;14.394;2022-08-19T01:09:46;93342.77;;;18.48;67.90
64211;BME280;50528;48.514;14.394;2022-08-19T01:10:56;93341.89;;;18.49;68.18
64211;BME280;50528;48.514;14.394;2022-08-19T01:12:01;93339.04;;;18.51;68.50
64211;BME280;50528;48.514;14.394;2022-08-19T01:13:05;93342.13;;;18.54;68.60
64211;BME280;50528;48.514;14.394;2022-08-19T01:14:08;93341.45;;;18.55;68.81
64211;BME280;50528;48.514;14.394;2022-08-19T01:15:17;93341.23;;;18.58;68.71
64211;BME280;50528;48.514;14.394;2022-08-19T01:16:23;93345.95;;;18.59;68.76
64211;BME280;50528;48.514;14.394;2022-08-19T01:17:28;93347.49;;;18.59;68.75
64211;BME280;50528;48.514;14.394;2022-08-19T01:18:33;93349.96;;;18.58;68.67
64211;BME280;50528;48.514;14.394;2022-08-19T01:19:41;93350.47;;;18.59;68.73
64211;BME280;50528;48.514;14.394;2022-08-19T01:20:48;93354.71;;;18.57;68.83
64211;BME280;50528;48.514;14.394;2022-08-19T01:21:58;93355.88;;;18.56;68.81
64211;BME280;50528;48.514;14.394;2022-08-19T01:23:16;93363.72;;;18.55;68.72
64211;BME280;50528;48.514;14.394;2022-08-19T01:24:20;93371.02;;;18.55;68.74
64211;BME280;50528;48.514;14.394;2022-08-19T01:25:29;93370.31;;;18.57;68.50
64211;BME280;50528;48.514;14.394;2022-08-19T01:26:43;93366.31;;;18.55;68.39
64211;BME280;50528;48.514;14.394;2022-08-19T01:27:51;93362.11;;;18.55;68.29
64211;BME280;50528;48.514;14.394;2022-08-19T01:28:57;93359.30;;;18.55;68.38
64211;BME280;50528;48.514;14.394;2022-08-19T01:30:04;93360.84;;;18.55;68.42
64211;BME280;50528;48.514;14.394;2022-08-19T01:31:15;93361.54;;;18.55;68.48
64211;BME280;50528;48.514;14.394;2022-08-19T01:32:29;93362.49;;;18.52;68.36
64211;BME280;50528;48.514;14.394;2022-08-19T01:33:36;93363.48;;;18.51;68.75
64211;BME280;50528;48.514;14.394;2022-08-19T01:34:39;93363.14;;;18.50;69.27
64211;BME280;50528;48.514;14.394;2022-08-19T01:35:42;93366.40;;;18.54;69.55
64211;BME280;50528;48.514;14.394;2022-08-19T01:36:47;93367.10;;;18.54;69.56
64211;BME280;50528;48.514;14.394;2022-08-19T01:37:55;93360.64;;;18.52;69.31
64211;BME280;50528;48.514;14.394;2022-08-19T01:39:00;93361.66;;;18.51;69.25
64211;BME280;50528;48.514;14.394;2022-08-19T01:40:05;93363.61;;;18.50;69.25
64211;BME280;50528;48.514;14.394;2022-08-19T01:41:11;93357.73;;;18.50;69.12
64211;BME280;50528;48.514;14.394;2022-08-19T01:42:15;93352.80;;;18.48;69.26
64211;BME280;50528;48.514;14.394;2022-08-19T01:43:19;93348.14;;;18.51;69.34
64211;BME280;50528;48.514;14.394;2022-08-19T01:44:22;93344.98;;;18.50;69.29
64211;BME280;50528;48.514;14.394;2022-08-19T01:45:29;93345.66;;;18.53;69.48
64211;BME280;50528;48.514;14.394;2022-08-19T01:46:33;93342.98;;;18.56;69.55
64211;BME280;50528;48.514;14.394;2022-08-19T01:47:37;93341.96;;;18.56;70.03
64211;BME280;50528;48.514;14.394;2022-08-19T01:48:42;93342.98;;;18.57;70.04
64211;BME280;50528;48.514;14.394;2022-08-19T01:49:46;93342.21;;;18.57;70.31
64211;BME280;50528;48.514;14.394;2022-08-19T01:50:49;93344.09;;;18.59;70.29
64211;BME280;50528;48.514;14.394;2022-08-19T01:51:53;93341.08;;;18.60;70.53
64211;BME280;50528;48.514;14.394;2022-08-19T01:52:56;93335.27;;;18.56;70.52
64211;BME280;50528;48.514;14.394;2022-08-19T01:54:11;93341.33;;;18.60;70.75
64211;BME280;50528;48.514;14.394;2022-08-19T01:55:16;93344.05;;;18.58;70.69
64211;BME280;50528;48.514;14.394;2022-08-19T01:56:21;93341.19;;;18.56;70.57
64211;BME280;50528;48.514;14.394;2022-08-19T01:57:25;93339.45;;;18.52;70.26
64211;BME280;50528;48.514;14.394;2022-08-19T01:58:36;93342.88;;;18.49;70.11
64211;BME280;50528;48.514;14.394;2022-08-19T01:59:44;93346.51;;;18.47;69.89
64211;BME280;50528;48.514;14.394;2022-08-19T02:00:48;93346.30;;;18.47;69.93
64211;BME280;50528;48.514;14.394;2022-08-19T02:01:51;93350.37;;;18.44;69.51
64211;BME280;50528;48.514;14.394;2022-08-19T02:02:54;93347.95;;;18.38;69.38
64211;BME280;50528;48.514;14.394;2022-08-19T02:03:58;93346.77;;;18.33;69.54
64211;BME280;50528;48.514;14.394;2022-08-19T02:05:06;93346.70;;;18.27;69.21
64211;BME280;50528;48.514;14.394;2022-08-19T02:06:13;93353.55;;;18.26;69.04
64211;BME280;50528;48.514;14.394;2022-08-19T02:07:19;93353.14;;;18.24;68.77
64211;BME280;50528;48.514;14.394;2022-08-19T02:08:24;93354.44;;;18.22;68.60
64211;BME280;50528;48.514;14.394;2022-08-19T02:09:27;93355.98;;;18.20;68.59
64211;BME280;50528;48.514;14.394;2022-08-19T02:10:31;93357.77;;;18.19;68.62
64211;BME280;50528;48.514;14.394;2022-08-19T02:11:36;93360.39;;;18.17;68.63
64211;BME280;50528;48.514;14.394;2022-08-19T02:12:40;93363.20;;;18.15;68.72
64211;BME280;50528;48.514;14.394;2022-08-19T02:13:43;93362.23;;;18.15;68.90
64211;BME280;50528;48.514;14.394;2022-08-19T02:14:49;93359.80;;;18.14;68.85
64211;BME280;50528;48.514;14.394;2022-08-19T02:15:53;93349.04;;;18.13;68.70
64211;BME280;50528;48.514;14.394;2022-08-19T02:16:57;93342.50;;;18.15;68.62
64211;BME280;50528;48.514;14.394;2022-08-19T02:18:00;93338.25;;;18.13;68.47
64211;BME280;50528;48.514;14.394;2022-08-19T02:19:04;93331.20;;;18.12;68.50
64211;BME280;50528;48.514;14.394;2022-08-19T02:20:08;93323.29;;;18.12;68.46
64211;BME280;50528;48.514;14.394;2022-08-19T02:21:11;93323.90;;;18.13;68.90
64211;BME280;50528;48.514;14.394;2022-08-19T02:22:16;93318.86;;;18.13;68.82
64211;BME280;50528;48.514;14.394;2022-08-19T02:23:19;93308.96;;;18.13;68.86
64211;BME280;50528;48.514;14.394;2022-08-19T02:24:22;93301.34;;;18.13;68.99
64211;BME280;50528;48.514;14.394;2022-08-19T02:25:25;93297.85;;;18.14;68.96
64211;BME280;50528;48.514;14.394;2022-08-19T02:26:29;93296.95;;;18.14;69.02
64211;BME280;50528;48.514;14.394;2022-08-19T02:27:35;93299.10;;;18.15;69.21
64211;BME280;50528;48.514;14.394;2022-08-19T02:28:39;93300.39;;;18.14;69.19
64211;BME280;50528;48.514;14.394;2022-08-19T02:29:42;93295.70;;;18.13;69.15
64211;BME280;50528;48.514;14.394;2022-08-19T02:30:47;93291.83;;;18.10;69.26
64211;BME280;50528;48.514;14.394;2022-08-19T02:31:52;93290.29;;;18.08;69.47
64211;BME280;50528;48.514;14.394;2022-08-19T02:32:55;93289.10;;;18.07;69.49
64211;BME280;50528;48.514;14.394;2022-08-19T02:33:59;93286.98;;;18.07;69.72
64211;BME280;50528;48.514;14.394;2022-08-19T02:35:04;93284.41;;;18.08;69.76
64211;BME280;50528;48.514;14.394;2022-08-19T02:36:16;93288.55;;;18.09;70.00
64211;BME280;50528;48.514;14.394;2022-08-19T02:37:22;93285.72;;;18.10;70.47
64211;BME280;50528;48.514;14.394;2022-08-19T02:38:45;93287.51;;;18.11;70.31
64211;BME280;50528;48.514;14.394;2022-08-19T02:39:57;93289.87;;;18.12;70.67
64211;BME280;50528;48.514;14.394;2022-08-19T02:41:12;93291.35;;;18.13;70.83
64211;BME280;50528;48.514;14.394;2022-08-19T02:42:16;93290.50;;;18.08;70.59
64211;BME280;50528;48.514;14.394;2022-08-19T02:43:19;93293.17;;;18.04;70.45
64211;BME280;50528;48.514;14.394;2022-08-19T02:44:23;93293.96;;;17.98;70.25
64211;BME280;50528;48.514;14.394;2022-08-19T02:45:38;93294.48;;;17.90;70.39
64211;BME280;50528;48.514;14.394;2022-08-19T02:46:48;93288.57;;;17.84;70.57
64211;BME280;50528;48.514;14.394;2022-08-19T02:47:54;93285.84;;;17.83;70.71
64211;BME280;50528;48.514;14.394;2022-08-19T02:49:03;93288.01;;;17.83;70.76
64211;BME280;50528;48.514;14.394;2022-08-19T02:50:08;93287.81;;;17.83;70.67
64211;BME280;50528;48.514;14.394;2022-08-19T02:51:19;93289.37;;;17.82;70.74
64211;BME280;50528;48.514;14.394;2022-08-19T02:52:22;93287.17;;;17.81;70.68
64211;BME280;50528;48.514;14.394;2022-08-19T02:53:27;93294.35;;;17.80;70.75
64211;BME280;50528;48.514;14.394;2022-08-19T02:54:31;93302.52;;;17.78;70.76
64211;BME280;50528;48.514;14.394;2022-08-19T02:55:44;93314.91;;;17.75;70.74
64211;BME280;50528;48.514;14.394;2022-08-19T02:56:48;93323.77;;;17.73;70.84
64211;BME280;50528;48.514;14.394;2022-08-19T02:57:51;93329.27;;;17.70;71.16
64211;BME280;50528;48.514;14.394;2022-08-19T02:58:55;93331.88;;;17.68;71.92
64211;BME280;50528;48.514;14.394;2022-08-19T02:59:58;93331.87;;;17.68;72.36
64211;BME280;50528;48.514;14.394;2022-08-19T03:01:02;93331.25;;;17.69;72.64
64211;BME280;50528;48.514;14.394;2022-08-19T03:02:05;93327.64;;;17.72;72.85
64211;BME280;50528;48.514;14.394;2022-08-19T03:03:08;93322.86;;;17.73;72.95
64211;BME280;50528;48.514;14.394;2022-08-19T03:04:14;93316.98;;;17.77;73.06
64211;BME280;50528;48.514;14.394;2022-08-19T03:05:18;93311.58;;;17.80;73.00
64211;BME280;50528;48.514;14.394;2022-08-19T03:06:44;93318.30;;;17.82;72.80
64211;BME280;50528;48.514;14.394;2022-08-19T03:07:48;93326.77;;;17.84;73.15
64211;BME280;50528;48.514;14.394;2022-08-19T03:08:51;93330.52;;;17.84;72.90
64211;BME280;50528;48.514;14.394;2022-08-19T03:09:55;93330.20;;;17.84;72.70
64211;BME280;50528;48.514;14.394;2022-08-19T03:10:58;93328.91;;;17.84;72.60
64211;BME280;50528;48.514;14.394;2022-08-19T03:12:03;93324.81;;;17.86;72.78
64211;BME280;50528;48.514;14.394;2022-08-19T03:13:06;93319.68;;;17.88;73.11
64211;BME280;50528;48.514;14.394;2022-08-19T03:14:10;93321.23;;;17.88;73.39
64211;BME280;50528;48.514;14.394;2022-08-19T03:15:14;93319.16;;;17.87;73.68
64211;BME280;50528;48.514;14.394;2022-08-19T03:16:19;93322.81;;;17.84;73.48
64211;BME280;50528;48.514;14.394;2022-08-19T03:17:25;93324.71;;;17.82;73.33
64211;BME280;50528;48.514;14.394;2022-08-19T03:18:29;93328.16;;;17.80;73.39
64211;BME280;50528;48.514;14.394;2022-08-19T03:19:32;93331.73;;;17.80;73.41
64211;BME280;50528;48.514;14.394;2022-08-19T03:20:46;93335.31;;;17.82;73.33
64211;BME280;50528;48.514;14.394;2022-08-19T03:21:51;93342.27;;;17.82;73.28
64211;BME280;50528;48.514;14.394;2022-08-19T03:22:54;93336.14;;;17.83;73.49
64211;BME280;50528;48.514;14.394;2022-08-19T03:24:00;93337.15;;;17.85;73.32
64211;BME280;50528;48.514;14.394;2022-08-19T03:25:04;93339.80;;;17.85;73.09
64211;BME280;50528;48.514;14.394;2022-08-19T03:26:10;93336.98;;;17.85;72.86
64211;BME280;50528;48.514;14.394;2022-08-19T03:27:18;93339.64;;;17.85;72.67
64211;BME280;50528;48.514;14.394;2022-08-19T03:28:21;93344.73;;;17.83;72.65
64211;BME280;50528;48.514;14.394;2022-08-19T03:29:29;93348.07;;;17.82;72.75
64211;BME280;50528;48.514;14.394;2022-08-19T03:31:03;93355.95;;;17.81;72.79
64211;BME280;50528;48.514;14.394;2022-08-19T03:32:29;93366.34;;;17.80;72.95
64211;BME280;50528;48.514;14.394;2022-08-19T03:33:35;93373.02;;;17.81;73.28
64211;BME280;50528;48.514;14.394;2022-08-19T03:34:39;93378.73;;;17.84;73.34
64211;BME280;50528;48.514;14.394;2022-08-19T03:35:42;93382.05;;;17.88;73.79
64211;BME280;50528;48.514;14.394;2022-08-19T03:36:48;93384.91;;;17.89;73.94
64211;BME280;50528;48.514;14.394;2022-08-19T03:37:51;93385.44;;;17.89;74.29
64211;BME280;50528;48.514;14.394;2022-08-19T03:38:59;93387.85;;;17.92;74.67
64211;BME280;50528;48.514;14.394;2022-08-19T03:40:03;93388.63;;;17.93;74.28
64211;BME280;50528;48.514;14.394;2022-08-19T03:41:10;93387.45;;;17.95;74.87
64211;BME280;50528;48.514;14.394;2022-08-19T03:42:14;93379.33;;;17.93;74.54
64211;BME280;50528;48.514;14.394;2022-08-19T03:43:40;93378.77;;;17.94;74.26
64211;BME280;50528;48.514;14.394;2022-08-19T03:44:45;93373.98;;;17.94;74.24
64211;BME280;50528;48.514;14.394;2022-08-19T03:45:49;93371.00;;;17.95;74.53
64211;BME280;50528;48.514;14.394;2022-08-19T03:46:55;93369.02;;;17.95;74.41
64211;BME280;50528;48.514;14.394;2022-08-19T03:47:59;93370.40;;;17.95;74.46
64211;BME280;50528;48.514;14.394;2022-08-19T03:49:04;93374.66;;;17.97;74.65
64211;BME280;50528;48.514;14.394;2022-08-19T03:50:11;93378.23;;;17.95;74.69
64211;BME280;50528;48.514;14.394;2022-08-19T03:51:28;93379.65;;;17.99;74.98
64211;BME280;50528;48.514;14.394;2022-08-19T03:52:35;93384.27;;;18.01;74.87
64211;BME280;50528;48.514;14.394;2022-08-19T03:53:38;93385.94;;;17.99;75.20
64211;BME280;50528;48.514;14.394;2022-08-19T03:54:42;93386.84;;;17.97;75.32
64211;BME280;50528;48.514;14.394;2022-08-19T03:55:45;93387.05;;;17.92;75.26
64211;BME280;50528;48.514;14.394;2022-08-19T03:56:50;93390.35;;;17.87;75.21
64211;BME280;50528;48.514;14.394;2022-08-19T03:58:00;93390.95;;;17.83;75.20
64211;BME280;50528;48.514;14.394;2022-08-19T03:59:06;93391.51;;;17.77;75.03
64211;BME280;50528;48.514;14.394;2022-08-19T04:00:12;93392.42;;;17.70;74.94
64211;BME280;50528;48.514;14.394;2022-08-19T04:01:19;93395.76;;;17.64;74.76
64211;BME280;50528;48.514;14.394;2022-08-19T04:02:32;93392.11;;;17.57;74.60
64211;BME280;50528;48.514;14.394;2022-08-19T04:03:37;93386.25;;;17.50;74.45
64211;BME280;50528;48.514;14.394;2022-08-19T04:04:42;93381.65;;;17.47;74.44
64211;BME280;50528;48.514;14.394;2022-08-19T04:05:46;93380.92;;;17.46;74.42
64211;BME280;50528;48.514;14.394;2022-08-19T04:06:50;93375.64;;;17.47;74.31
64211;BME280;50528;48.514;14.394;2022-08-19T04:07:54;93376.50;;;17.49;74.34
64211;BME280;50528;48.514;14.394;2022-08-19T04:09:04;93381.80;;;17.52;74.31
64211;BME280;50528;48.514;14.394;2022-08-19T04:10:08;93382.92;;;17.54;74.05
64211;BME280;50528;48.514;14.394;2022-08-19T04:11:15;93384.08;;;17.56;74.10
64211;BME280;50528;48.514;14.394;2022-08-19T04:12:19;93379.55;;;17.57;73.99
64211;BME280;50528;48.514;14.394;2022-08-19T04:13:23;93385.27;;;17.62;74.19
64211;BME280;50528;48.514;14.394;2022-08-19T04:14:29;93384.12;;;17.66;74.22
64211;BME280;50528;48.514;14.394;2022-08-19T04:15:41;93385.17;;;17.71;74.43
64211;BME280;50528;48.514;14.394;2022-08-19T04:16:46;93385.72;;;17.74;74.92
64211;BME280;50528;48.514;14.394;2022-08-19T04:17:50;93388.03;;;17.80;75.53
64211;BME280;50528;48.514;14.394;2022-08-19T04:18:53;93394.74;;;17.84;75.95
64211;BME280;50528;48.514;14.394;2022-08-19T04:19:57;93400.13;;;17.85;76.12
64211;BME280;50528;48.514;14.394;2022-08-19T04:21:03;93403.87;;;17.87;75.89
64211;BME280;50528;48.514;14.394;2022-08-19T04:22:07;93407.81;;;17.84;75.84
64211;BME280;50528;48.514;14.394;2022-08-19T04:23:12;93406.30;;;17.81;75.90
64211;BME280;50528;48.514;14.394;2022-08-19T04:24:16;93405.34;;;17.79;75.82
64211;BME280;50528;48.514;14.394;2022-08-19T04:25:20;93411.79;;;17.79;75.90
64211;BME280;50528;48.514;14.394;2022-08-19T04:26:26;93399.92;;;17.70;76.10
64211;BME280;50528;48.514;14.394;2022-08-19T04:27:30;93420.34;;;17.84;76.57
64211;BME280;50528;48.514;14.394;2022-08-19T04:28:34;93424.20;;;17.86;76.69
64211;BME280;50528;48.514;14.394;2022-08-19T04:29:38;93427.80;;;17.94;77.53
64211;BME280;50528;48.514;14.394;2022-08-19T04:30:46;93426.63;;;17.94;77.57
64211;BME280;50528;48.514;14.394;2022-08-19T04:31:54;93425.22;;;17.96;77.61
64211;BME280;50528;48.514;14.394;2022-08-19T04:32:58;93429.52;;;18.04;78.47
64211;BME280;50528;48.514;14.394;2022-08-19T04:34:05;93433.92;;;18.05;78.44
64211;BME280;50528;48.514;14.394;2022-08-19T04:35:08;93433.95;;;18.06;78.54
64211;BME280;50528;48.514;14.394;2022-08-19T04:36:24;93438.31;;;18.10;78.49
64211;BME280;50528;48.514;14.394;2022-08-19T04:37:28;93442.13;;;18.15;78.74
64211;BME280;50528;48.514;14.394;2022-08-19T04:38:39;93447.30;;;18.18;78.66
64211;BME280;50528;48.514;14.394;2022-08-19T04:39:42;93453.49;;;18.29;79.20
64211;BME280;50528;48.514;14.394;2022-08-19T04:41:04;93465.96;;;18.28;79.33
64211;BME280;50528;48.514;14.394;2022-08-19T04:42:26;93476.38;;;18.29;79.37
64211;BME280;50528;48.514;14.394;2022-08-19T04:43:41;93487.39;;;18.33;79.72
64211;BME280;50528;48.514;14.394;2022-08-19T04:44:44;93491.66;;;18.39;79.94
64211;BME280;50528;48.514;14.394;2022-08-19T04:45:48;93494.27;;;18.49;80.31
64211;BME280;50528;48.514;14.394;2022-08-19T04:46:58;93493.55;;;18.38;80.19
64211;BME280;50528;48.514;14.394;2022-08-19T04:48:03;93485.90;;;18.31;80.21
64211;BME280;50528;48.514;14.394;2022-08-19T04:49:27;93491.04;;;18.35;80.21
64211;BME280;50528;48.514;14.394;2022-08-19T04:50:30;93483.83;;;18.33;80.43
64211;BME280;50528;48.514;14.394;2022-08-19T04:51:34;93483.35;;;18.37;80.27
64211;BME280;50528;48.514;14.394;2022-08-19T04:52:39;93481.86;;;18.38;80.27
64211;BME280;50528;48.514;14.394;2022-08-19T04:53:45;93484.67;;;18.39;80.11
64211;BME280;50528;48.514;14.394;2022-08-19T04:54:48;93484.75;;;18.41;80.15
64211;BME280;50528;48.514;14.394;2022-08-19T04:55:52;93488.09;;;18.44;80.45
64211;BME280;50528;48.514;14.394;2022-08-19T04:56:55;93493.08;;;18.45;80.40
64211;BME280;50528;48.514;14.394;2022-08-19T04:57:58;93497.34;;;18.47;80.51
64211;BME280;50528;48.514;14.394;2022-08-19T04:59:02;93498.98;;;18.45;80.47
64211;BME280;50528;48.514;14.394;2022-08-19T05:00:09;93507.23;;;18.47;80.54
64211;BME280;50528;48.514;14.394;2022-08-19T05:01:18;93497.54;;;18.48;80.68
64211;BME280;50528;48.514;14.394;2022-08-19T05:02:22;93495.41;;;18.48;80.72
64211;BME280;50528;48.514;14.394;2022-08-19T05:03:28;93490.56;;;18.50;80.84
64211;BME280;50528;48.514;14.394;2022-08-19T05:04:38;93486.50;;;18.48;80.78
64211;BME280;50528;48.514;14.394;2022-08-19T05:05:44;93482.58;;;18.50;80.95
64211;BME280;50528;48.514;14.394;2022-08-19T05:06:48;93484.82;;;18.52;81.03
64211;BME280;50528;48.514;14.394;2022-08-19T05:07:52;93480.13;;;18.50;81.05
64211;BME280;50528;48.514;14.394;2022-08-19T05:08:55;93484.05;;;18.50;81.01
64211;BME280;50528;48.514;14.394;2022-08-19T05:09:58;93494.63;;;18.54;81.02
64211;BME280;50528;48.514;14.394;2022-08-19T05:11:08;93499.51;;;18.55;81.15
64211;BME280;50528;48.514;14.394;2022-08-19T05:12:16;93505.55;;;18.54;80.99
64211;BME280;50528;48.514;14.394;2022-08-19T05:13:21;93509.84;;;18.55;80.99
64211;BME280;50528;48.514;14.394;2022-08-19T05:14:24;93511.23;;;18.57;80.88
64211;BME280;50528;48.514;14.394;2022-08-19T05:15:27;93516.29;;;18.57;80.78
64211;BME280;50528;48.514;14.394;2022-08-19T05:16:31;93517.06;;;18.60;80.76
64211;BME280;50528;48.514;14.394;2022-08-19T05:17:34;93515.19;;;18.62;80.76
64211;BME280;50528;48.514;14.394;2022-08-19T05:18:41;93514.25;;;18.68;80.72
64211;BME280;50528;48.514;14.394;2022-08-19T05:20:05;93514.48;;;18.62;80.80
64211;BME280;50528;48.514;14.394;2022-08-19T05:21:29;93511.45;;;18.56;81.21
64211;BME280;50528;48.514;14.394;2022-08-19T05:22:51;93508.44;;;18.52;81.08
64211;BME280;50528;48.514;14.394;2022-08-19T05:23:55;93498.30;;;18.45;81.21
64211;BME280;50528;48.514;14.394;2022-08-19T05:24:59;93507.41;;;18.53;81.38
64211;BME280;50528;48.514;14.394;2022-08-19T05:26:15;93504.65;;;18.53;81.42
64211;BME280;50528;48.514;14.394;2022-08-19T05:27:18;93495.76;;;18.53;81.29
64211;BME280;50528;48.514;14.394;2022-08-19T05:28:22;93483.24;;;18.53;81.34
64211;BME280;50528;48.514;14.394;2022-08-19T05:29:26;93474.98;;;18.57;81.25
64211;BME280;50528;48.514;14.394;2022-08-19T05:30:39;93472.23;;;18.58;81.29
64211;BME280;50528;48.514;14.394;2022-08-19T05:31:50;93473.23;;;18.58;81.30
64211;BME280;50528;48.514;14.394;2022-08-19T05:32:53;93479.35;;;18.59;81.40
64211;BME280;50528;48.514;14.394;2022-08-19T05:33:58;93476.59;;;18.58;81.26
64211;BME280;50528;48.514;14.394;2022-08-19T05:35:03;93474.59;;;18.60;81.44
64211;BME280;50528;48.514;14.394;2022-08-19T05:36:06;93470.06;;;18.60;81.45
64211;BME280;50528;48.514;14.394;2022-08-19T05:37:10;93468.80;;;18.61;81.34
64211;BME280;50528;48.514;14.394;2022-08-19T05:38:18;93467.90;;;18.63;81.42
64211;BME280;50528;48.514;14.394;2022-08-19T05:39:25;93462.52;;;18.66;81.50
64211;BME280;50528;48.514;14.394;2022-08-19T05:40:28;93465.64;;;18.66;81.52
64211;BME280;50528;48.514;14.394;2022-08-19T05:41:32;93473.24;;;18.66;81.54
64211;BME280;50528;48.514;14.394;2022-08-19T05:42:37;93474.05;;;18.68;81.62
64211;BME280;50528;48.514;14.394;2022-08-19T05:43:40;93467.09;;;18.69;81.52
64211;BME280;50528;48.514;14.394;2022-08-19T05:44:44;93458.52;;;18.70;81.56
64211;BME280;50528;48.514;14.394;2022-08-19T05:45:47;93453.68;;;18.71;81.43
64211;BME280;50528;48.514;14.394;2022-08-19T05:46:53;93448.33;;;18.71;81.36
64211;BME280;50528;48.514;14.394;2022-08-19T05:47:56;93447.27;;;18.74;81.38